This is the latest recevied weather packets stored in our database for station/object KO6MEX-13. If no packets are shown the sender has not sent any weather packets the latest 10 day(s).
| Time | Temp. | Humidity | Pressure | Rain* | Wind** | Luminosity | Snow |
|---|---|---|---|---|---|---|---|
| 1777519342 | 15.56° C | 74% | 1019.2 hPa | 0 mm | - | 0 W/m² | - |
| 1777519039 | 15.56° C | 73% | 1019.2 hPa | 0 mm | - | 0 W/m² | - |
| 1777518735 | 16.11° C | 72% | 1019.1 hPa | 0 mm | - | 0 W/m² | - |
| 1777518433 | 16.11° C | 71% | 1019.1 hPa | 0 mm | - | 0 W/m² | - |
| 1777518128 | 16.11° C | 71% | 1019 hPa | 0 mm | - | 0 W/m² | - |
| 1777517824 | 16.67° C | 69% | 1019 hPa | 0 mm | - | 0 W/m² | - |
| 1777517520 | 16.67° C | 68% | 1018.8 hPa | 0 mm | - | 0 W/m² | - |
| 1777517219 | 16.67° C | 67% | 1018.7 hPa | 0 mm | - | 1 W/m² | - |
| 1777516916 | 17.22° C | 67% | 1018.7 hPa | 0 mm | - | 2 W/m² | - |
| 1777516613 | 17.22° C | 65% | 1018.5 hPa | 0 mm | - | 4 W/m² | - |
| 1777516308 | 17.22° C | 63% | 1018.5 hPa | 0 mm | - | 7 W/m² | - |
| 1777516005 | 17.78° C | 62% | 1018.5 hPa | 0 mm | - | 9 W/m² | - |
| 1777515702 | 17.78° C | 61% | 1018.4 hPa | 0 mm | - | 11 W/m² | - |
| 1777515399 | 18.33° C | 59% | 1018.3 hPa | 0 mm | - | 13 W/m² | - |
| 1777515095 | 18.33° C | 58% | 1018.3 hPa | 0 mm | - | 16 W/m² | - |
| 1777514792 | 18.33° C | 56% | 1018.1 hPa | 0 mm | - | 18 W/m² | - |
| 1777514489 | 18.89° C | 54% | 1018.2 hPa | 0 mm | - | 20 W/m² | - |
| 1777514186 | 19.44° C | 53% | 1018.3 hPa | 0 mm | - | 23 W/m² | - |
| 1777513882 | 20° C | 51% | 1018.2 hPa | 0 mm | - | 24 W/m² | - |
| 1777513579 | 20° C | 51% | 1018 hPa | 0 mm | - | 27 W/m² | - |
| 1777513276 | 20.56° C | 49% | 1018 hPa | 0 mm | - | 29 W/m² | - |
| 1777512973 | 21.11° C | 49% | 1018 hPa | 0 mm | - | 32 W/m² | - |
| 1777512669 | 21.67° C | 47% | 1018 hPa | 0 mm | - | 48 W/m² | - |
| 1777512366 | 22.78° C | 45% | 1018 hPa | 0 mm | - | 96 W/m² | - |
| 1777512063 | 23.33° C | 44% | 1018.1 hPa | 0 mm | - | 150 W/m² | - |
* Rain latest hour (hover to see other rain measurements)
** Current wind speed in m/s (hover to see current wind gust speed)